Time;durP1;ratioP1;P1;durP2;ratioP2;P2;SDS_P1;SDS_P2;PMS_P1;PMS_P2;Temp;Humidity;BMP_temperature;BMP_pressure;BME280_temperature;BME280_humidity;BME280_pressure;Samples;Min_cycle;Max_cycle;Signal;HPM_P1;HPM_P2
2022/02/12 00:00:10;;;;;;;7.25;3.53;;;;;;;8.59;40.91;103178.31;5022380;28;20390;-61
2022/02/12 00:02:35;;;;;;;10.68;3.92;;;;;;;8.57;40.82;103177.50;5005320;28;20033;-61
2022/02/12 00:05:01;;;;;;;13.63;4.45;;;;;;;8.52;39.98;103171.47;5004047;28;20096;-63
2022/02/12 00:07:26;;;;;;;8.20;3.75;;;;;;;8.55;39.68;103179.34;5022368;28;20052;-62
2022/02/12 00:09:53;;;;;;;11.02;3.58;;;;;;;8.54;41.04;103179.44;5021169;28;20025;-62
2022/02/12 00:12:18;;;;;;;15.00;4.25;;;;;;;8.52;40.88;103174.13;5020672;28;20041;-62
2022/02/12 00:14:43;;;;;;;10.90;4.38;;;;;;;8.53;41.24;103178.56;5004901;28;20033;-62
2022/02/12 00:17:09;;;;;;;14.93;4.68;;;;;;;8.52;39.99;103178.59;5019966;28;20038;-62
2022/02/12 00:19:34;;;;;;;7.63;3.47;;;;;;;8.52;40.53;103174.13;5022189;28;20034;-62
2022/02/12 00:22:00;;;;;;;12.15;3.97;;;;;;;8.50;41.35;103176.00;5020408;28;20033;-62
2022/02/12 00:24:25;;;;;;;10.30;4.18;;;;;;;8.43;41.01;103155.78;5022048;28;20438;-61
2022/02/12 00:26:51;;;;;;;8.43;4.10;;;;;;;8.46;41.22;103165.50;5021908;28;20033;-62
2022/02/12 00:29:16;;;;;;;10.25;3.90;;;;;;;8.42;40.62;103163.84;5020395;28;20092;-62
2022/02/12 00:31:42;;;;;;;13.07;4.72;;;;;;;8.42;40.71;103159.41;5013180;28;20030;-61
2022/02/12 00:34:07;;;;;;;11.20;3.22;;;;;;;8.40;40.76;103155.91;5012756;28;20399;-62
2022/02/12 00:36:32;;;;;;;10.23;4.32;;;;;;;8.39;40.31;103162.19;5012948;28;20083;-62
2022/02/12 00:38:58;;;;;;;13.00;5.28;;;;;;;8.37;39.97;103156.03;5012988;28;20034;-61
2022/02/12 00:41:23;;;;;;;7.45;3.67;;;;;;;8.37;40.86;103145.34;5012782;28;20112;-62
2022/02/12 00:43:48;;;;;;;6.10;3.50;;;;;;;8.36;40.09;103148.06;4972469;28;1160823;-62
2022/02/12 00:46:14;;;;;;;8.63;3.67;;;;;;;8.34;40.47;103150.81;5013786;28;20045;-62
2022/02/12 00:48:39;;;;;;;12.35;3.83;;;;;;;8.33;40.55;103142.84;5013489;28;20103;-61
2022/02/12 00:51:04;;;;;;;10.77;4.38;;;;;;;8.34;41.47;103140.13;4995792;28;20037;-62
2022/02/12 00:53:30;;;;;;;8.75;3.78;;;;;;;8.33;40.73;103133.03;4996152;28;20069;-62
2022/02/12 00:55:56;;;;;;;9.02;3.58;;;;;;;8.33;40.39;103121.47;4996266;28;20407;-62
2022/02/12 00:58:21;;;;;;;8.73;4.38;;;;;;;8.33;41.28;103132.16;4996145;28;20484;-61
2022/02/12 01:00:47;;;;;;;13.95;3.65;;;;;;;8.29;40.98;103120.72;5013531;28;20045;-62
2022/02/12 01:03:13;;;;;;;5.90;4.05;;;;;;;8.32;40.36;103120.59;5013622;28;20042;-61
2022/02/12 01:05:39;;;;;;;12.55;3.50;;;;;;;8.32;40.32;103119.75;5013446;28;20030;-62
2022/02/12 01:08:05;;;;;;;9.13;3.92;;;;;;;8.30;41.15;103124.25;5013460;28;20034;-62
2022/02/12 01:10:32;;;;;;;8.10;3.72;;;;;;;8.25;40.96;103119.06;5013197;28;20084;-61
2022/02/12 01:12:59;;;;;;;7.95;3.22;;;;;;;8.26;40.47;103119.94;4979692;28;20036;-61
2022/02/12 01:15:24;;;;;;;6.07;3.13;;;;;;;8.25;40.85;103118.19;4995987;28;20446;-62
2022/02/12 01:17:50;;;;;;;9.38;3.75;;;;;;;8.19;41.22;103108.63;5013327;28;20065;-62
2022/02/12 01:20:15;;;;;;;13.27;3.95;;;;;;;8.20;41.17;103110.38;4996361;28;20045;-62
2022/02/12 01:22:41;;;;;;;4.18;3.15;;;;;;;8.20;41.30;103108.59;5016988;28;20488;-62
2022/02/12 01:25:08;;;;;;;4.07;3.42;;;;;;;8.16;40.58;103093.59;5017160;28;20033;-62
2022/02/12 01:27:34;;;;;;;13.15;4.00;;;;;;;8.21;41.20;103110.31;5016977;28;20033;-61
2022/02/12 01:30:00;;;;;;;12.40;3.38;;;;;;;8.21;40.90;103110.31;5016746;28;20042;-62
2022/02/12 01:32:26;;;;;;;12.48;3.60;;;;;;;8.18;41.25;103106.88;5017075;28;20057;-61
2022/02/12 01:34:51;;;;;;;8.90;3.35;;;;;;;8.19;40.23;103108.63;5016876;28;20037;-62
2022/02/12 01:37:17;;;;;;;8.60;3.90;;;;;;;8.17;40.24;103114.03;5016838;28;20156;-61
2022/02/12 01:39:42;;;;;;;10.32;4.22;;;;;;;8.14;40.43;103110.59;4999130;28;20057;-62
2022/02/12 01:42:08;;;;;;;10.13;4.07;;;;;;;8.14;40.30;103106.13;5016893;28;20041;-62
2022/02/12 01:44:36;;;;;;;8.95;3.58;;;;;;;8.14;41.86;103106.13;5016412;28;20058;-61
2022/02/12 01:47:03;;;;;;;11.10;5.00;;;;;;;8.14;41.50;103105.25;4998956;28;20029;-62
2022/02/12 01:49:29;;;;;;;13.43;3.28;;;;;;;8.13;41.93;103098.16;4982934;28;20033;-61
2022/02/12 01:51:55;;;;;;;6.32;3.55;;;;;;;8.13;40.42;103099.03;4998925;28;20037;-61
2022/02/12 01:54:23;;;;;;;9.43;3.42;;;;;;;8.11;40.72;103092.03;5016381;28;20104;-61
2022/02/12 01:56:49;;;;;;;12.40;4.07;;;;;;;8.11;41.02;103095.56;4998929;28;20036;-62
2022/02/12 01:59:14;;;;;;;7.07;3.22;;;;;;;8.09;40.69;103081.44;4999095;28;20030;-62
2022/02/12 02:01:39;;;;;;;7.90;3.00;;;;;;;8.08;40.88;103092.16;5016235;28;20384;-62
2022/02/12 02:04:06;;;;;;;9.27;3.40;;;;;;;8.07;41.56;103082.38;4998780;28;20129;-61
2022/02/12 02:06:32;;;;;;;8.35;3.28;;;;;;;8.06;40.99;103091.34;4998681;28;20033;-62
2022/02/12 02:09:03;;;;;;;7.10;3.70;;;;;;;8.06;41.84;103088.66;5015941;28;20042;-62
2022/02/12 02:11:29;;;;;;;7.85;4.05;;;;;;;8.03;41.27;103081.66;5016051;28;20021;-62
2022/02/12 02:13:55;;;;;;;14.13;3.72;;;;;;;8.02;41.96;103079.91;4998639;28;20030;-62
2022/02/12 02:16:20;;;;;;;10.82;3.85;;;;;;;7.99;41.55;103074.69;5016064;28;20030;-61
2022/02/12 02:18:45;;;;;;;4.60;2.88;;;;;;;7.99;41.30;103079.13;4998104;28;20030;-62
2022/02/12 02:21:11;;;;;;;8.02;3.25;;;;;;;7.96;40.43;103068.56;5015857;28;20099;-62
2022/02/12 02:23:38;;;;;;;12.25;4.22;;;;;;;7.93;41.98;103068.69;5016144;28;20034;-61
2022/02/12 02:26:04;;;;;;;8.82;3.67;;;;;;;7.91;41.88;103057.22;4998539;28;20037;-62
2022/02/12 02:28:29;;;;;;;9.57;3.35;;;;;;;7.91;41.81;103051.88;5015998;28;20153;-61
2022/02/12 02:30:55;;;;;;;8.05;3.28;;;;;;;7.85;40.89;103039.63;4998018;28;20159;-61
2022/02/12 02:33:20;;;;;;;6.35;3.15;;;;;;;7.87;40.67;103052.94;4980844;28;20076;-61
2022/02/12 02:35:46;;;;;;;12.50;3.58;;;;;;;7.84;41.71;103037.91;5015747;28;20475;-61
2022/02/12 02:38:13;;;;;;;5.85;3.25;;;;;;;7.83;40.56;103045.94;5015391;28;20030;-62
2022/02/12 02:40:39;;;;;;;9.65;3.42;;;;;;;7.80;40.98;103040.72;4981944;28;20034;-62
2022/02/12 02:43:05;;;;;;;4.20;3.15;;;;;;;7.82;41.64;103041.53;4997581;28;20497;-62
2022/02/12 02:45:30;;;;;;;8.48;3.30;;;;;;;7.82;41.72;103033.53;5015199;28;20058;-61
2022/02/12 02:48:00;;;;;;;10.98;3.67;;;;;;;7.86;41.24;103045.84;4998015;28;20032;-61
2022/02/12 02:55:59;;;;;;;8.55;2.60;;;;;;;7.84;40.84;103045.03;5015090;28;20117;-62
2022/02/12 02:58:34;;;;;;;8.88;3.42;;;;;;;7.81;40.91;103037.16;5015377;28;20360;-61
2022/02/12 03:01:02;;;;;;;9.40;3.75;;;;;;;7.80;41.17;103041.59;4997668;28;20041;-62
2022/02/12 03:03:29;;;;;;;7.55;3.08;;;;;;;7.78;41.90;103037.25;4997686;28;20025;-62
2022/02/12 03:05:55;;;;;;;5.55;3.22;;;;;;;7.78;42.31;103038.13;4981954;28;20026;-62
2022/02/12 03:08:20;;;;;;;9.30;2.75;;;;;;;7.78;41.56;103039.94;5014966;28;20092;-61
2022/02/12 03:10:46;;;;;;;6.57;2.78;;;;;;;7.70;41.01;103026.88;5015166;28;20049;-62
2022/02/12 03:13:11;;;;;;;9.77;2.88;;;;;;;7.73;40.73;103039.22;5014777;28;20041;-62
2022/02/12 03:15:38;;;;;;;11.10;2.97;;;;;;;7.70;41.51;103034.00;5014764;28;20037;-62
2022/02/12 03:18:03;;;;;;;11.63;2.75;;;;;;;7.68;40.70;103028.72;4997687;28;20072;-62
2022/02/12 03:20:29;;;;;;;5.00;2.92;;;;;;;7.67;42.31;103037.66;5014337;28;20057;-61
2022/02/12 03:22:55;;;;;;;7.05;2.50;;;;;;;7.63;40.80;103034.22;4981389;28;20030;-61
2022/02/12 03:25:21;;;;;;;8.15;3.72;;;;;;;7.63;41.95;103022.69;5014448;28;20443;-61
2022/02/12 03:27:52;;;;;;;6.15;3.17;;;;;;;7.60;42.03;103017.47;4997057;28;20036;-61
2022/02/12 03:30:17;;;;;;;12.32;3.33;;;;;;;7.60;42.14;103018.34;4997667;28;20117;-62
2022/02/12 03:32:42;;;;;;;6.20;2.72;;;;;;;7.62;41.14;103010.28;5015064;28;20073;-61
2022/02/12 03:35:08;;;;;;;11.38;2.50;;;;;;;7.62;40.89;103013.81;4996842;28;20065;-62
2022/02/12 03:37:33;;;;;;;5.72;2.50;;;;;;;7.60;42.17;102997.00;5014716;28;20034;-62
2022/02/12 03:39:58;;;;;;;10.77;2.85;;;;;;;7.61;41.61;103004.09;4997279;28;20030;-62
2022/02/12 03:42:24;;;;;;;7.43;2.85;;;;;;;7.61;41.02;102996.09;5014425;28;20038;-62
2022/02/12 03:44:49;;;;;;;6.45;2.85;;;;;;;7.61;41.67;102996.09;5013721;28;20064;-62
2022/02/12 03:47:15;;;;;;;6.93;3.00;;;;;;;7.61;42.48;102993.41;5014516;28;20406;-61
2022/02/12 03:49:40;;;;;;;7.13;2.60;;;;;;;7.61;41.74;102998.75;5014074;28;20498;-62
2022/02/12 03:52:06;;;;;;;6.95;2.60;;;;;;;7.51;42.48;102978.66;5014220;28;20026;-61
2022/02/12 03:54:31;;;;;;;10.52;2.72;;;;;;;7.56;41.75;102982.06;5014171;28;20117;-62
2022/02/12 03:56:56;;;;;;;9.65;2.40;;;;;;;7.57;40.94;102986.44;5014120;28;20072;-61
2022/02/12 03:59:22;;;;;;;6.10;2.90;;;;;;;7.56;42.39;102999.84;5014219;28;20057;-61
2022/02/12 04:01:47;;;;;;;8.05;2.22;;;;;;;7.53;40.93;102992.84;4996154;28;20033;-62
2022/02/12 04:04:13;;;;;;;10.60;2.78;;;;;;;7.53;41.92;102984.84;5013654;28;20053;-62
2022/02/12 04:06:38;;;;;;;5.75;2.50;;;;;;;7.51;42.41;102976.00;5013756;28;20025;-62
2022/02/12 04:09:04;;;;;;;3.92;2.42;;;;;;;7.46;41.96;102967.31;5013796;28;20594;-62
2022/02/12 04:11:29;;;;;;;5.55;3.10;;;;;;;7.50;41.97;102976.94;4996176;28;20497;-61
2022/02/12 04:13:54;;;;;;;4.20;2.58;;;;;;;7.49;42.56;102975.19;5013738;28;20434;-61
2022/02/12 04:16:19;;;;;;;6.47;2.80;;;;;;;7.48;42.00;102969.94;5013835;28;20395;-61
2022/02/12 04:18:45;;;;;;;17.65;3.00;;;;;;;7.46;41.54;102969.97;5013757;28;20034;-62
2022/02/12 04:21:12;;;;;;;11.45;2.60;;;;;;;7.45;41.88;102981.56;5014007;28;20399;-62
2022/02/12 04:23:38;;;;;;;9.13;2.53;;;;;;;7.44;41.54;102969.16;4996571;28;20021;-61
2022/02/12 04:26:05;;;;;;;6.75;2.50;;;;;;;7.42;42.44;102979.03;4996248;28;20041;-62
2022/02/12 04:28:36;;;;;;;6.07;1.95;;;;;;;7.28;41.71;102962.66;5013909;28;20045;-62
2022/02/12 04:31:04;;;;;;;4.63;2.35;;;;;;;7.40;42.03;102986.19;4996698;28;20439;-62
2022/02/12 04:33:30;;;;;;;9.85;2.10;;;;;;;7.38;41.58;102979.19;5013519;28;20046;-62
2022/02/12 04:35:56;;;;;;;3.80;2.10;;;;;;;7.38;41.77;102977.38;5013434;28;20105;-62
2022/02/12 04:38:21;;;;;;;7.80;3.22;;;;;;;7.40;42.72;102980.84;4996147;28;20108;-62
2022/02/12 04:40:46;;;;;;;11.48;2.33;;;;;;;7.41;42.69;102979.94;4995828;28;20038;-62
2022/02/12 04:43:12;;;;;;;4.65;2.53;;;;;;;7.44;42.57;102978.97;4995850;28;20038;-62
2022/02/12 04:45:37;;;;;;;6.68;2.35;;;;;;;7.45;41.83;102976.22;5013246;28;20054;-62
2022/02/12 04:48:03;;;;;;;6.28;2.17;;;;;;;7.45;42.01;102965.56;4995666;28;20030;-61
2022/02/12 04:50:28;;;;;;;3.58;1.48;;;;;;;7.51;41.22;102970.66;5013281;28;20029;-61
2022/02/12 04:52:53;;;;;;;4.32;2.03;;;;;;;7.54;41.82;102975.88;4995661;28;20033;-61
2022/02/12 04:55:19;;;;;;;6.60;2.33;;;;;;;7.57;41.36;102973.13;5014019;28;20038;-62
2022/02/12 04:57:44;;;;;;;5.40;2.03;;;;;;;7.55;41.51;102960.78;5017078;28;20034;-61
2022/02/12 05:00:10;;;;;;;7.03;1.85;;;;;;;7.62;41.29;102952.47;5016854;28;20038;-62
2022/02/12 05:02:35;;;;;;;9.05;1.90;;;;;;;7.63;41.58;102956.88;4999506;28;20042;-62
2022/02/12 05:05:01;;;;;;;7.65;1.90;;;;;;;7.63;42.53;102956.88;5017026;28;20033;-62
2022/02/12 05:07:27;;;;;;;4.75;1.90;;;;;;;7.61;42.13;102953.41;4999402;28;20467;-61
2022/02/12 05:09:52;;;;;;;5.07;2.03;;;;;;;7.59;41.51;102947.25;5016771;28;20057;-61
2022/02/12 05:12:18;;;;;;;4.13;1.67;;;;;;;7.58;42.04;102950.00;4982938;28;20399;-61
2022/02/12 05:14:43;;;;;;;13.55;2.50;;;;;;;7.56;42.65;102947.41;5016701;28;20379;-62
2022/02/12 05:17:08;;;;;;;13.55;2.10;;;;;;;7.54;42.32;102943.03;5016976;28;20033;-62
2022/02/12 05:19:34;;;;;;;5.13;1.98;;;;;;;7.52;42.82;102934.22;5016620;28;20116;-62
2022/02/12 05:21:59;;;;;;;9.02;1.95;;;;;;;7.50;41.74;102928.97;4999034;28;20034;-61
2022/02/12 05:24:25;;;;;;;3.13;2.30;;;;;;;7.45;41.99;102932.72;5016559;28;20038;-62
2022/02/12 05:26:50;;;;;;;2.42;1.48;;;;;;;7.47;42.84;102925.53;4999214;28;20057;-61
2022/02/12 05:29:15;;;;;;;8.18;1.58;;;;;;;7.47;41.76;102921.06;5016491;28;20501;-61
2022/02/12 05:31:41;;;;;;;2.13;1.48;;;;;;;7.48;42.76;102916.63;4998672;28;20045;-61
2022/02/12 05:34:06;;;;;;;5.78;2.25;;;;;;;7.51;42.18;102912.00;4998805;28;20475;-61
2022/02/12 05:36:32;;;;;;;9.30;1.95;;;;;;;7.50;41.59;102904.97;5016244;28;20498;-61
2022/02/12 05:38:57;;;;;;;6.50;1.98;;;;;;;7.55;42.98;102908.31;5016278;28;20105;-61
2022/02/12 05:41:22;;;;;;;4.47;1.38;;;;;;;7.55;41.87;102897.66;5016222;28;20044;-61
2022/02/12 05:43:48;;;;;;;3.15;1.83;;;;;;;7.58;41.97;102902.88;5015875;28;20038;-61
2022/02/12 05:46:14;;;;;;;7.32;1.92;;;;;;;7.59;42.56;102893.91;5016257;28;20128;-62
2022/02/12 05:48:40;;;;;;;10.02;1.35;;;;;;;7.61;42.14;102885.88;5016235;28;20132;-62
2022/02/12 05:51:05;;;;;;;11.82;1.70;;;;;;;7.61;42.15;102888.53;5015935;28;20053;-62
2022/02/12 05:53:31;;;;;;;9.68;2.20;;;;;;;7.60;41.57;102889.47;4998567;28;20462;-61
2022/02/12 05:55:56;;;;;;;2.63;1.35;;;;;;;7.64;42.54;102885.75;5002776;28;20040;-62
2022/02/12 05:58:22;;;;;;;5.97;2.13;;;;;;;7.61;41.82;102881.41;5018180;28;20486;-62
2022/02/12 06:00:49;;;;;;;6.07;1.98;;;;;;;7.62;41.80;102883.13;5034436;28;20048;-62
2022/02/12 06:03:15;;;;;;;6.15;2.08;;;;;;;7.60;42.23;102885.00;5018283;28;20041;-61
2022/02/12 06:05:40;;;;;;;2.40;1.33;;;;;;;7.52;41.96;102884.44;5035646;28;20394;-61
2022/02/12 06:08:05;;;;;;;9.20;2.08;;;;;;;7.53;42.56;102896.84;5001339;28;20075;-61
2022/02/12 06:10:32;;;;;;;3.78;1.73;;;;;;;7.51;42.82;102887.13;5017722;28;20029;-61
2022/02/12 06:12:58;;;;;;;2.20;1.77;;;;;;;7.49;42.37;102887.22;5017696;28;20033;-62
2022/02/12 06:15:23;;;;;;;6.22;1.98;;;;;;;7.45;42.21;102874.91;5017820;28;20398;-61
2022/02/12 06:17:49;;;;;;;10.02;1.50;;;;;;;7.42;42.10;102879.50;5035301;28;20030;-62
2022/02/12 06:20:14;;;;;;;3.22;1.10;;;;;;;7.44;42.91;102878.53;5017526;28;20029;-62
2022/02/12 06:22:40;;;;;;;3.35;1.58;;;;;;;7.44;41.52;102872.31;5017606;28;20033;-62
2022/02/12 06:25:06;;;;;;;5.68;1.60;;;;;;;7.44;43.03;102877.66;5017535;28;20079;-61
2022/02/12 06:27:31;;;;;;;6.18;1.50;;;;;;;7.44;41.85;102882.97;5035017;28;20039;-61
2022/02/12 06:29:57;;;;;;;2.60;1.58;;;;;;;7.42;42.52;102869.72;5017707;28;20033;-62
2022/02/12 06:32:24;;;;;;;12.07;1.77;;;;;;;7.40;42.71;102868.91;5035429;28;20041;-62
2022/02/12 06:34:51;;;;;;;6.78;1.80;;;;;;;7.40;41.49;102870.69;5035132;28;20026;-62
2022/02/12 06:37:19;;;;;;;9.82;2.08;;;;;;;7.37;42.32;102866.34;5035016;28;20040;-61
2022/02/12 06:39:44;;;;;;;4.82;1.52;;;;;;;7.30;42.43;102842.66;5034786;28;20112;-61
2022/02/12 06:42:09;;;;;;;7.07;1.98;;;;;;;7.38;41.62;102870.75;5000462;28;20129;-62
2022/02/12 06:44:35;;;;;;;5.05;1.95;;;;;;;7.39;43.07;102863.63;5034441;28;20058;-61
2022/02/12 06:47:00;;;;;;;4.38;1.65;;;;;;;7.40;42.05;102866.22;5034882;28;20577;-61
2022/02/12 06:49:25;;;;;;;8.15;1.73;;;;;;;7.40;43.12;102857.34;5034764;28;20092;-61
2022/02/12 06:51:51;;;;;;;5.10;1.27;;;;;;;7.41;41.55;102851.97;5034624;28;20490;-61
2022/02/12 06:54:16;;;;;;;6.80;2.67;;;;;;;7.42;42.09;102843.06;5033868;28;20486;-62
2022/02/12 06:56:41;;;;;;;8.45;2.30;;;;;;;7.44;43.08;102849.19;5015110;28;20505;-61
2022/02/12 06:59:08;;;;;;;4.22;1.70;;;;;;;7.38;41.79;102833.44;5034597;28;20133;-61
2022/02/12 07:01:34;;;;;;;12.07;1.50;;;;;;;7.47;41.61;102843.75;5034488;28;20036;-62
2022/02/12 07:03:59;;;;;;;4.47;1.17;;;;;;;7.47;43.19;102846.41;5034365;28;20394;-61
2022/02/12 07:06:24;;;;;;;6.32;2.00;;;;;;;7.49;42.81;102847.22;5034430;28;20033;-62
2022/02/12 07:08:50;;;;;;;5.82;1.20;;;;;;;7.51;42.19;102842.69;4997088;28;20041;-61
2022/02/12 07:11:16;;;;;;;10.52;1.95;;;;;;;7.59;43.02;102850.41;5013390;28;20026;-62
2022/02/12 07:13:41;;;;;;;4.10;1.50;;;;;;;7.63;42.35;102847.53;5014558;28;20483;-62
2022/02/12 07:16:06;;;;;;;8.18;1.50;;;;;;;7.70;41.60;102844.63;5014566;28;20045;-62
2022/02/12 07:18:32;;;;;;;3.15;1.25;;;;;;;7.76;42.60;102853.25;5013973;28;20061;-61
2022/02/12 07:20:57;;;;;;;17.23;2.40;;;;;;;7.81;43.11;102840.63;5014254;28;20041;-61
2022/02/12 07:23:23;;;;;;;3.85;1.50;;;;;;;7.83;42.81;102827.19;5014464;28;20033;-61
2022/02/12 07:25:48;;;;;;;7.38;1.27;;;;;;;7.94;42.84;102840.97;5013598;28;20033;-61
2022/02/12 07:28:14;;;;;;;6.72;1.40;;;;;;;8.00;42.80;102830.06;5014749;28;20116;-62
2022/02/12 07:30:41;;;;;;;6.32;1.17;;;;;;;8.06;42.73;102833.34;5014998;28;20042;-62
2022/02/12 07:33:06;;;;;;;8.05;1.63;;;;;;;8.12;42.64;102826.88;5014612;28;20043;-62
2022/02/12 07:35:32;;;;;;;3.97;0.90;;;;;;;8.15;43.11;102832.09;5014547;28;20029;-61
2022/02/12 07:37:58;;;;;;;7.60;2.13;;;;;;;8.20;41.73;102830.97;5012968;28;20480;-61
2022/02/12 07:40:23;;;;;;;5.78;1.10;;;;;;;8.26;41.74;102827.16;5013899;28;20026;-62
2022/02/12 07:42:49;;;;;;;4.60;1.40;;;;;;;8.33;42.10;102835.78;5018879;28;20044;-62
2022/02/12 07:45:16;;;;;;;2.13;0.98;;;;;;;8.37;41.84;102832.06;5033922;28;20061;-61
2022/02/12 07:47:42;;;;;;;9.07;2.00;;;;;;;8.44;42.64;102830.88;5016675;28;20041;-61
2022/02/12 07:50:09;;;;;;;3.60;1.10;;;;;;;8.49;42.38;102832.41;5034202;28;20490;-61
2022/02/12 07:52:35;;;;;;;5.45;1.42;;;;;;;8.56;42.23;102830.34;5033885;28;20037;-62
2022/02/12 07:55:01;;;;;;;5.53;1.50;;;;;;;8.62;42.44;102820.25;5033800;28;20037;-62
2022/02/12 07:57:26;;;;;;;8.35;1.65;;;;;;;8.67;42.14;102823.59;5033810;28;20073;-62
2022/02/12 07:59:52;;;;;;;12.07;1.48;;;;;;;8.77;42.46;102830.25;5016077;28;20467;-61
2022/02/12 08:02:20;;;;;;;2.47;0.80;;;;;;;8.82;42.21;102823.84;5033933;28;20036;-62
2022/02/12 08:04:45;;;;;;;9.95;1.30;;;;;;;8.93;41.55;102824.22;5033833;28;20037;-61
2022/02/12 08:07:29;;;;;;;6.15;1.52;;;;;;;9.00;41.98;102814.97;5033752;28;20029;-62
2022/02/12 08:10:00;;;;;;;4.78;1.20;;;;;;;9.07;42.43;102817.28;5033747;28;20037;-61
2022/02/12 08:12:26;;;;;;;4.43;1.35;;;;;;;9.10;41.62;102810.97;5016243;28;20091;-61
2022/02/12 08:14:56;;;;;;;4.53;1.58;;;;;;;9.22;41.84;102821.94;4999616;28;20124;-61
2022/02/12 08:17:23;;;;;;;11.10;1.95;;;;;;;9.30;41.18;102818.91;5016127;28;20025;-61
2022/02/12 08:19:50;;;;;;;7.28;1.25;;;;;;;9.36;42.61;102818.63;5015601;28;20033;-61
2022/02/12 08:22:17;;;;;;;7.40;2.53;;;;;;;9.42;41.99;102812.09;5033486;28;20033;-61
2022/02/12 08:24:42;;;;;;;4.25;1.25;;;;;;;9.47;42.29;102810.94;5015892;28;20506;-61
2022/02/12 08:27:11;;;;;;;8.40;1.73;;;;;;;9.51;41.88;102806.31;5033625;28;20037;-61
2022/02/12 08:29:40;;;;;;;4.88;1.38;;;;;;;9.54;41.92;102799.03;5033297;28;20105;-61
2022/02/12 08:32:07;;;;;;;13.80;1.98;;;;;;;9.60;42.47;102797.88;5019651;28;20120;-61
2022/02/12 08:34:33;;;;;;;9.15;1.65;;;;;;;9.71;41.58;102804.44;5019768;28;20035;-62
2022/02/12 08:36:59;;;;;;;3.45;1.42;;;;;;;9.78;41.97;102811.19;5037068;28;20040;-62
2022/02/12 08:39:24;;;;;;;11.68;3.50;;;;;;;9.83;40.89;102809.16;5019614;28;20104;-62
2022/02/12 08:41:50;;;;;;;13.48;2.10;;;;;;;9.87;41.96;102794.69;5037204;28;20041;-62
2022/02/12 08:44:16;;;;;;;5.50;1.88;;;;;;;9.93;42.34;102794.41;5019223;28;20059;-62
2022/02/12 08:46:43;;;;;;;3.90;1.42;;;;;;;10.04;42.02;102801.00;5019900;28;20041;-62
2022/02/12 08:49:09;;;;;;;7.13;1.40;;;;;;;10.13;41.80;102795.22;5037131;28;20034;-62
2022/02/12 08:51:37;;;;;;;6.82;1.13;;;;;;;10.23;41.93;102786.63;5037025;28;20072;-62
2022/02/12 08:54:04;;;;;;;8.60;1.85;;;;;;;10.31;41.72;102788.91;5037224;28;20079;-62
2022/02/12 08:56:31;;;;;;;5.93;1.73;;;;;;;10.39;41.91;102786.69;5019586;28;20078;-61
2022/02/12 08:58:57;;;;;;;10.18;2.25;;;;;;;10.49;41.71;102785.28;5019315;28;20038;-62
2022/02/12 09:01:22;;;;;;;3.95;1.33;;;;;;;10.60;41.57;102779.38;5036673;28;20494;-62
2022/02/12 09:03:47;;;;;;;6.63;1.50;;;;;;;10.69;41.34;102787.75;5036886;28;20475;-62
2022/02/12 09:06:13;;;;;;;9.18;1.77;;;;;;;10.79;41.25;102772.94;5018922;28;20506;-62
2022/02/12 09:08:38;;;;;;;7.18;2.47;;;;;;;10.98;41.28;102773.66;5036593;28;20463;-61
2022/02/12 09:11:03;;;;;;;4.35;1.42;;;;;;;11.08;41.30;102777.56;5036563;28;20151;-62
2022/02/12 09:13:29;;;;;;;14.15;2.25;;;;;;;11.26;40.71;102777.50;5018775;28;20034;-62
2022/02/12 09:15:55;;;;;;;14.18;2.80;;;;;;;11.48;40.61;102769.97;5036573;28;20076;-62
2022/02/12 09:18:21;;;;;;;8.65;1.85;;;;;;;11.72;40.59;102765.06;5036428;28;20037;-62
2022/02/12 09:20:46;;;;;;;13.55;2.53;;;;;;;11.91;41.01;102758.50;5036296;28;20601;-62
2022/02/12 09:23:12;;;;;;;7.65;1.77;;;;;;;12.04;40.52;102748.75;5018603;28;20103;-62
2022/02/12 09:25:38;;;;;;;4.60;1.80;;;;;;;12.24;40.86;102740.38;5036649;28;20037;-62
2022/02/12 09:28:04;;;;;;;10.38;1.70;;;;;;;12.62;40.46;102751.44;5036242;28;20502;-62
2022/02/12 09:30:29;;;;;;;8.43;2.10;;;;;;;12.84;39.89;102722.25;5036326;28;20037;-62
2022/02/12 09:32:56;;;;;;;7.85;2.03;;;;;;;13.31;40.55;102740.78;5018766;28;20040;-62
2022/02/12 09:35:22;;;;;;;6.65;1.83;;;;;;;13.66;39.37;102734.88;5019025;28;20044;-62
2022/02/12 09:37:47;;;;;;;12.57;2.30;;;;;;;13.87;39.42;102723.53;5016109;28;20037;-62
2022/02/12 09:40:13;;;;;;;9.18;2.00;;;;;;;14.21;38.77;102727.47;5018735;28;20040;-62
2022/02/12 09:42:39;;;;;;;6.72;1.90;;;;;;;14.87;37.48;102729.13;5018067;28;20116;-62
2022/02/12 09:45:06;;;;;;;5.43;1.67;;;;;;;15.02;36.86;102722.59;5036046;28;20514;-62
2022/02/12 09:47:45;;;;;;;10.07;1.80;;;;;;;15.20;38.40;102715.88;5036503;28;20037;-62
2022/02/12 09:50:10;;;;;;;5.65;1.35;;;;;;;15.53;36.92;102724.19;5018508;28;20450;-63
2022/02/12 09:52:36;;;;;;;6.32;1.67;;;;;;;15.76;38.07;102711.66;5036151;28;20029;-63
2022/02/12 09:55:03;;;;;;;11.15;2.22;;;;;;;15.72;37.17;102711.03;5018736;28;20040;-63
2022/02/12 09:57:28;;;;;;;6.47;3.17;;;;;;;15.67;37.30;102706.94;5018430;28;20040;-62
2022/02/12 10:00:04;;;;;;;4.05;1.40;;;;;;;15.70;36.76;102704.88;5036146;28;20022;-63
2022/02/12 10:02:29;;;;;;;8.65;2.20;;;;;;;15.85;38.31;102704.69;5036179;28;20025;-63
2022/02/12 10:05:17;;;;;;;9.32;2.38;;;;;;;16.18;36.82;102697.56;5018789;28;20437;-63
2022/02/12 10:07:44;;;;;;;7.90;3.03;;;;;;;16.62;37.03;102696.78;5018904;28;20021;-63
2022/02/12 10:10:11;;;;;;;8.52;1.88;;;;;;;17.15;35.94;102697.84;5018516;28;20024;-62
2022/02/12 10:12:36;;;;;;;4.38;1.80;;;;;;;17.78;35.46;102683.47;5036306;28;20433;-62
2022/02/12 10:15:02;;;;;;;5.15;2.47;;;;;;;18.37;35.47;102685.63;5036079;28;20116;-63
2022/02/12 10:17:27;;;;;;;10.32;2.53;;;;;;;18.92;34.49;102670.75;5018700;28;20041;-63
2022/02/12 10:19:52;;;;;;;4.38;1.75;;;;;;;19.40;33.99;102670.88;5036558;28;20053;-63
2022/02/12 10:22:19;;;;;;;7.18;2.42;;;;;;;19.79;33.05;102660.88;5036796;28;20030;-63
2022/02/12 10:24:50;;;;;;;8.77;2.05;;;;;;;19.72;34.09;102655.13;5002955;28;20026;-62
2022/02/12 10:27:17;;;;;;;10.55;2.92;;;;;;;20.04;33.03;102661.13;5036373;28;20154;-63
2022/02/12 10:29:47;;;;;;;7.85;1.67;;;;;;;20.41;32.56;102644.03;5036136;28;20017;-63
2022/02/12 10:32:14;;;;;;;8.30;2.10;;;;;;;20.77;32.99;102651.31;5036018;28;20093;-63
2022/02/12 10:34:43;;;;;;;6.55;1.73;;;;;;;21.04;32.17;102634.09;5018534;28;20134;-63
2022/02/12 10:37:11;;;;;;;7.30;1.75;;;;;;;21.36;31.60;102651.69;5018236;28;20102;-64
2022/02/12 10:39:52;;;;;;;8.52;2.55;;;;;;;21.09;31.44;102649.00;5035447;28;20027;-64
2022/02/12 10:42:18;;;;;;;4.68;1.48;;;;;;;20.60;32.65;102643.94;5036066;28;20028;-64
2022/02/12 10:44:45;;;;;;;6.97;1.48;;;;;;;20.40;31.93;102628.69;5035703;28;20053;-64
2022/02/12 10:47:13;;;;;;;5.55;1.88;;;;;;;20.63;31.95;102627.31;5017882;28;20172;-63
2022/02/12 10:49:42;;;;;;;3.95;1.80;;;;;;;20.98;31.34;102627.38;5036014;28;20036;-64
2022/02/12 10:52:07;;;;;;;2.60;1.35;;;;;;;21.29;31.53;102617.88;5035479;28;20056;-64
2022/02/12 10:54:43;;;;;;;7.80;1.90;;;;;;;21.52;30.41;102606.50;5034293;28;20486;-64
2022/02/12 10:57:08;;;;;;;5.60;2.38;;;;;;;21.68;31.14;102609.34;5034865;28;20025;-64
2022/02/12 10:59:36;;;;;;;4.90;1.60;;;;;;;21.81;30.51;102605.19;5016939;28;20055;-65
2022/02/12 11:02:07;;;;;;;6.75;1.42;;;;;;;21.88;30.50;102589.09;5034690;28;20474;-64
2022/02/12 11:04:35;;;;;;;7.70;2.33;;;;;;;21.70;30.78;102588.22;5016967;28;20079;-64
2022/02/12 11:07:02;;;;;;;5.72;1.65;;;;;;;21.42;30.29;102591.06;5034502;28;20033;-64
2022/02/12 11:09:29;;;;;;;6.55;1.60;;;;;;;21.06;30.36;102585.72;5017595;28;20100;-65
2022/02/12 11:11:55;;;;;;;3.92;1.60;;;;;;;21.22;29.88;102577.75;5000810;28;20033;-65
2022/02/12 11:14:22;;;;;;;7.28;2.53;;;;;;;21.39;30.21;102585.94;5034661;28;20033;-65
2022/02/12 11:16:48;;;;;;;5.90;2.05;;;;;;;21.54;29.72;102577.19;5016936;28;20147;-64
2022/02/12 11:19:14;;;;;;;11.95;1.90;;;;;;;21.65;29.54;102568.75;5016463;28;20029;-64
2022/02/12 11:21:39;;;;;;;5.18;1.73;;;;;;;21.66;29.13;102565.03;5016346;28;20091;-65
2022/02/12 11:24:08;;;;;;;5.70;1.73;;;;;;;21.75;29.67;102566.78;5034038;28;20022;-64
2022/02/12 11:26:42;;;;;;;4.13;1.38;;;;;;;21.82;28.76;102548.75;5016719;28;20390;-64
2022/02/12 11:29:37;;;;;;;5.60;1.42;;;;;;;21.86;29.17;102545.53;5033964;28;20021;-64